Date,TemperatureHighF,TemperatureAvgF,TemperatureLowF,DewpointHighF,DewpointAvgF,DewpointLowF,HumidityHigh,HumidityAvg,HumidityLow,PressureMaxIn,PressureMinIn,WindSpeedMaxMPH,WindSpeedAvgMPH,GustSpeedMaxMPH,PrecipitationSumIn
2013-9-1,100.8,83.3,70.0,80.1,75.7,69.4,98,81,48,29.88,29.76,7,2,0,0.00
2013-9-2,96.6,80.6,71.1,85.2,76.2,70.5,98,88,58,29.92,29.82,10,2,0,0.00
2013-9-3,99.5,82.6,71.2,81.5,76.6,70.6,98,84,53,29.93,29.81,6,1,0,0.00
2013-9-4,100.6,82.7,69.4,80.9,74.3,68.8,98,80,44,30.02,29.91,7,1,0,0.00
2013-9-5,101.3,82.9,69.8,81.3,75.5,69.2,98,82,44,30.05,29.95,5,1,0,0.00
2013-9-6,99.7,81.9,70.5,82.2,75.4,69.9,98,84,44,30.05,29.90,7,1,0,0.13
2013-9-7,100.9,80.9,68.0,77.0,73.0,67.4,98,81,44,29.99,29.87,6,1,0,0.00
2013-9-8,101.1,80.2,64.2,78.0,71.5,63.6,98,79,42,29.94,29.83,6,1,0,0.00
2013-9-9,102.9,81.4,66.0,78.4,73.1,65.4,98,80,44,30.00,29.89,5,1,0,0.00
2013-9-10,101.5,81.1,68.7,85.2,75.1,68.1,98,85,50,30.06,29.94,6,1,0,0.04
2013-9-11,100.8,81.5,67.6,78.6,73.2,67.0,98,80,44,30.08,29.94,5,1,0,0.00
2013-9-12,100.6,79.9,66.2,79.1,71.3,65.6,98,79,38,30.00,29.82,5,1,0,0.00
2013-9-13,97.3,76.9,66.9,78.4,72.2,66.3,98,88,53,29.87,29.75,8,2,0,0.25
2013-9-14,91.2,72.8,60.6,69.7,64.7,60.0,98,80,41,29.94,29.84,8,1,0,0.01
2013-9-15,98.1,75.0,57.0,72.3,65.7,56.4,98,78,39,30.02,29.93,8,1,0,0.00
2013-9-16,100.6,79.2,65.7,79.3,71.8,65.1,98,82,44,30.04,29.92,7,1,0,0.00
2013-9-17,100.2,78.4,63.5,74.8,68.8,62.9,98,77,40,30.03,29.89,7,1,0,0.00
2013-9-18,93.4,78.0,64.8,80.3,73.9,64.2,98,88,63,30.01,29.90,6,1,0,0.00
2013-9-19,99.1,80.6,69.3,79.9,74.2,68.7,98,84,51,29.98,29.86,6,1,0,0.00
2013-9-20,91.4,77.1,70.9,88.5,75.5,70.3,98,95,71,29.93,29.70,8,2,0,1.84
2013-9-21,79.2,72.5,66.2,77.3,71.8,65.6,98,98,92,29.76,29.67,6,2,0,2.45
2013-9-22,84.9,68.0,56.5,67.0,61.9,55.9,98,84,52,29.82,29.73,6,2,0,0.00
2013-9-23,88.2,70.7,52.3,79.3,67.5,51.8,98,91,71,29.82,29.74,5,1,0,0.00
2013-9-24,80.6,74.5,71.1,80.0,73.9,70.5,98,98,98,29.82,29.70,7,1,0,3.25
2013-9-25,88.9,75.1,63.0,78.9,70.2,62.4,98,87,52,29.80,29.71,7,2,0,0.00
2013-9-26,91.8,72.6,58.5,74.2,66.3,57.9,98,84,51,29.92,29.78,6,1,0,0.01
2013-9-27,91.2,74.5,64.4,77.8,70.3,63.8,98,88,60,30.00,29.91,6,1,0,0.00
2013-9-28,90.1,71.6,61.0,74.0,66.6,60.4,98,87,56,30.05,29.95,5,1,0,0.00
2013-9-29,75.2,68.8,60.8,74.6,68.2,60.2,98,98,98,30.01,29.90,3,0,0,0.02
2013-9-30,85.1,73.9,66.9,83.6,73.2,66.3,98,98,92,29.92,29.84,7,1,0,0.02